Terminal Aerodrome Forecast
Issued by NWS

Home | Current Version | Previous Version | Text Only | Print | Product List | Glossary On
Versions: 1 2 3 4 5 6 7 8 9 10 11 12 13
000
FTUS45 KREV 211700
TAFMMH
TAF
KMMH 211734Z 2118/2218 29008KT P6SM BKN140
     FM211900 29015G25KT P6SM SCT090 BKN180
     FM220200 29010KT P6SM SCT180=

USA.gov is the U.S. government's official web portal to all federal, state and local government web resources and services.